createdAt,value
2023-05-10T00:02:33.996Z,2.87
2023-05-10T00:07:32.543Z,2.60
2023-05-10T00:12:31.140Z,2.90
2023-05-10T00:17:31.128Z,2.80
2023-05-10T00:22:29.584Z,3.30
2023-05-10T00:27:28.084Z,3.20
2023-05-10T00:32:26.740Z,3.60
2023-05-10T00:37:26.954Z,3.63
2023-05-10T00:42:25.461Z,3.60
2023-05-10T00:47:26.345Z,3.77
2023-05-10T00:52:27.328Z,3.20
2023-05-10T00:57:25.992Z,3.30
2023-05-10T01:02:24.935Z,4.00
2023-05-10T01:07:23.647Z,3.20
2023-05-10T01:12:23.684Z,3.00
2023-05-10T01:17:22.879Z,3.90
2023-05-10T01:22:56.148Z,3.30
2023-05-10T01:28:16.972Z,3.43
2023-05-10T01:33:23.353Z,3.10
2023-05-10T01:38:25.266Z,3.97
2023-05-10T01:43:31.730Z,4.03
2023-05-10T01:48:32.485Z,4.10
2023-05-10T01:53:34.105Z,3.53
2023-05-10T01:58:36.607Z,3.03
2023-05-10T02:03:39.177Z,3.37
2023-05-10T02:08:38.573Z,2.73
2023-05-10T02:13:40.691Z,3.40
2023-05-10T02:18:43.501Z,4.17
2023-05-10T02:23:42.652Z,3.00
2023-05-10T02:28:42.484Z,3.47
2023-05-10T02:33:42.994Z,3.30
2023-05-10T02:38:42.724Z,3.73
2023-05-10T02:43:43.260Z,3.00
2023-05-10T02:48:43.221Z,4.27
2023-05-10T02:53:46.260Z,2.93
2023-05-10T02:58:44.808Z,3.30
2023-05-10T03:03:44.703Z,3.07
2023-05-10T03:08:43.314Z,3.60
2023-05-10T03:13:51.688Z,3.50
2023-05-10T03:18:57.441Z,3.87
2023-05-10T03:24:05.414Z,3.60
2023-05-10T03:29:05.687Z,3.40
2023-05-10T03:34:05.646Z,3.60
2023-05-10T03:39:04.761Z,3.20
2023-05-10T03:44:03.329Z,2.87
2023-05-10T03:49:02.949Z,3.87
2023-05-10T03:54:02.830Z,3.67
2023-05-10T03:59:01.966Z,3.60
2023-05-10T04:04:03.139Z,4.33
2023-05-10T04:09:05.764Z,3.50
2023-05-10T04:14:04.354Z,3.77
2023-05-10T04:19:02.824Z,2.90
2023-05-10T04:24:01.294Z,3.47
2023-05-10T04:29:00.777Z,3.07
2023-05-10T04:33:59.247Z,3.50
2023-05-10T04:38:57.891Z,3.60
2023-05-10T04:43:56.376Z,3.90
2023-05-10T04:48:56.296Z,3.43
2023-05-10T04:54:05.072Z,3.20
2023-05-10T04:59:05.152Z,3.03
2023-05-10T05:04:05.212Z,4.30
2023-05-10T05:09:03.844Z,3.43
2023-05-10T05:14:02.308Z,2.73
2023-05-10T05:19:02.024Z,3.20
2023-05-10T05:24:02.287Z,3.40
2023-05-10T05:29:00.821Z,3.20
2023-05-10T05:33:59.391Z,3.03
2023-05-10T05:38:57.871Z,3.00
2023-05-10T05:43:57.720Z,3.53
2023-05-10T05:48:56.186Z,3.73
2023-05-10T05:53:54.902Z,3.30
2023-05-10T05:58:53.367Z,3.40
2023-05-10T06:03:53.572Z,3.30
2023-05-10T06:08:52.703Z,2.53
2023-05-10T06:13:50.818Z,3.60
2023-05-10T06:18:49.622Z,3.27
2023-05-10T06:23:49.816Z,3.53
2023-05-10T06:28:48.289Z,3.77
2023-05-10T06:33:46.796Z,2.67
2023-05-10T06:38:45.271Z,3.67
2023-05-10T06:43:44.776Z,3.47
2023-05-10T06:48:43.260Z,3.00
2023-05-10T06:53:41.418Z,2.97
2023-05-10T06:58:39.579Z,2.80
2023-05-10T07:03:39.407Z,3.70
2023-05-10T07:08:37.864Z,3.43
2023-05-10T07:13:37.559Z,3.03
2023-05-10T07:18:36.230Z,2.60
2023-05-10T07:23:36.114Z,3.73
2023-05-10T07:28:34.392Z,2.90
2023-05-10T07:33:33.425Z,4.03
2023-05-10T07:38:31.932Z,3.27
2023-05-10T07:43:31.808Z,3.60
2023-05-10T07:48:30.290Z,3.43
2023-05-10T07:53:29.563Z,3.00
2023-05-10T07:58:28.520Z,3.70
2023-05-10T08:03:28.428Z,3.20
2023-05-10T08:08:26.979Z,3.60
2023-05-10T08:13:25.592Z,3.57
2023-05-10T08:18:24.103Z,2.77
2023-05-10T08:23:23.982Z,3.37
2023-05-10T08:28:22.492Z,4.13
2023-05-10T08:33:21.174Z,3.60
2023-05-10T08:38:20.698Z,3.23
2023-05-10T08:43:21.741Z,3.50
2023-05-10T08:48:20.183Z,3.77
2023-05-10T08:53:19.373Z,3.00
2023-05-10T08:58:20.829Z,3.40
2023-05-10T09:10:09.161Z,4.07
2023-05-10T09:15:11.229Z,3.90
2023-05-10T09:20:10.252Z,4.27
2023-05-10T09:25:10.398Z,3.80
2023-05-10T09:30:10.997Z,3.33
2023-05-10T09:35:14.736Z,3.80
2023-05-10T09:40:15.310Z,2.80
2023-05-10T09:45:15.425Z,3.70
2023-05-10T09:50:14.122Z,4.20
2023-05-10T09:55:12.269Z,4.60
2023-05-10T10:00:12.546Z,5.23
2023-05-10T10:05:15.753Z,3.13
2023-05-10T10:10:15.097Z,3.80
2023-05-10T10:15:15.986Z,3.17
2023-05-10T10:20:17.682Z,4.83
2023-05-10T10:25:18.741Z,3.60
2023-05-10T10:30:26.385Z,3.80
2023-05-10T10:35:26.970Z,4.70
2023-05-10T10:40:30.875Z,4.07
2023-05-10T10:45:31.976Z,5.07
2023-05-10T10:50:31.874Z,4.87
2023-05-10T10:55:31.649Z,4.70
2023-05-10T11:00:32.213Z,4.47
2023-05-10T11:05:40.631Z,3.70
2023-05-10T11:10:39.388Z,5.00
2023-05-10T11:15:39.273Z,4.73
2023-05-10T11:20:42.962Z,4.00
2023-05-10T11:25:45.829Z,5.00
2023-05-10T11:30:46.580Z,4.43
2023-05-10T11:35:46.570Z,4.77
2023-05-10T11:40:45.758Z,6.30
2023-05-10T11:45:44.805Z,5.90
2023-05-10T11:50:43.257Z,3.63
2023-05-10T11:55:43.068Z,4.60
2023-05-10T12:00:42.033Z,4.43
2023-05-10T12:05:43.127Z,4.43
2023-05-10T12:10:43.118Z,5.10
2023-05-10T12:15:41.942Z,8.00
2023-05-10T12:20:41.012Z,4.93
2023-05-10T12:25:40.946Z,3.40
2023-05-10T12:30:41.441Z,4.23
2023-05-10T12:35:50.652Z,4.17
2023-05-10T12:40:49.384Z,2.90
2023-05-10T12:45:50.230Z,5.40
2023-05-10T12:50:49.224Z,3.63
2023-05-10T12:55:47.447Z,4.93
2023-05-10T13:00:46.334Z,4.00
2023-05-10T13:05:46.324Z,3.30
2023-05-10T13:10:44.516Z,4.40
2023-05-10T13:15:42.693Z,3.50
2023-05-10T13:20:40.838Z,2.67
2023-05-10T13:25:40.717Z,6.73
2023-05-10T13:30:38.872Z,2.50
2023-05-10T13:35:37.346Z,3.47
2023-05-10T13:40:35.846Z,5.90
2023-05-10T13:45:36.010Z,3.80
2023-05-10T13:50:34.538Z,5.50
2023-05-10T13:55:32.730Z,2.77
2023-05-10T14:00:31.213Z,2.77
2023-05-10T14:05:31.523Z,3.33
2023-05-10T14:10:30.019Z,2.80
2023-05-10T14:15:28.599Z,3.57
2023-05-10T14:20:27.296Z,2.50
2023-05-10T14:25:27.530Z,2.77
2023-05-10T14:30:26.168Z,2.90
2023-05-10T14:35:25.069Z,2.23
2023-05-10T14:40:23.763Z,2.97
2023-05-10T14:45:23.585Z,2.40
2023-05-10T14:50:35.804Z,1.90
2023-05-10T14:55:36.061Z,2.73
2023-05-10T15:00:35.925Z,1.80
2023-05-10T15:05:34.948Z,2.10
2023-05-10T15:10:34.689Z,2.50
2023-05-10T15:15:33.235Z,2.10
2023-05-10T15:20:33.197Z,1.63
2023-05-10T15:25:31.667Z,2.97
2023-05-10T15:30:30.371Z,2.40
2023-05-10T15:35:29.204Z,1.27
2023-05-10T15:40:29.088Z,1.67
2023-05-10T15:45:28.137Z,2.17
2023-05-10T15:50:26.667Z,2.10
2023-05-10T15:55:25.238Z,1.80
2023-05-10T16:00:25.276Z,1.67
2023-05-10T16:05:23.711Z,2.30
2023-05-10T16:10:22.188Z,2.30
2023-05-10T16:15:22.030Z,2.40
2023-05-10T16:20:21.860Z,2.23
2023-05-10T16:25:20.556Z,1.70
2023-05-10T16:30:19.389Z,1.40
2023-05-10T16:35:18.379Z,1.70
2023-05-10T16:40:18.822Z,2.10
2023-05-10T16:45:17.576Z,1.40
2023-05-10T16:50:16.402Z,1.70
2023-05-10T16:55:15.182Z,1.40
2023-05-10T17:00:16.574Z,1.70
2023-05-10T17:05:15.238Z,1.53
2023-05-10T17:10:14.332Z,1.63
2023-05-10T17:15:16.819Z,2.50
2023-05-10T17:20:15.538Z,1.73
2023-05-10T17:25:14.029Z,2.03
2023-05-10T17:30:14.813Z,1.97
2023-05-10T17:35:13.334Z,1.57
2023-05-10T17:40:12.688Z,1.93
2023-05-10T17:45:12.123Z,1.87
2023-05-10T17:50:12.992Z,2.50
2023-05-10T17:55:12.903Z,2.00
2023-05-10T18:00:12.530Z,2.13
2023-05-10T18:05:13.379Z,2.30
2023-05-10T18:10:12.806Z,1.40
2023-05-10T18:15:12.152Z,2.53
2023-05-10T18:20:13.106Z,2.00
2023-05-10T18:25:11.980Z,1.60
2023-05-10T18:30:12.758Z,2.57
2023-05-10T18:35:13.519Z,1.80
2023-05-10T18:40:15.460Z,1.50
2023-05-10T18:45:14.764Z,1.67
2023-05-10T18:50:14.506Z,1.57
2023-05-10T18:55:13.298Z,2.20
2023-05-10T19:00:13.606Z,1.57
2023-05-10T19:05:12.383Z,1.70
2023-05-10T19:10:13.815Z,1.83
2023-05-10T19:15:13.006Z,1.20
2023-05-10T19:20:12.668Z,2.20
2023-05-10T19:25:13.444Z,2.60
2023-05-10T19:30:12.506Z,3.30
2023-05-10T19:35:14.912Z,1.60
2023-05-10T19:40:17.650Z,1.50
2023-05-10T19:45:16.934Z,3.77
2023-05-10T19:50:16.650Z,3.73
2023-05-10T19:55:27.093Z,3.40
2023-05-10T20:00:27.634Z,4.37
2023-05-10T20:05:26.334Z,3.70
2023-05-10T20:10:27.183Z,3.50
2023-05-10T20:15:26.050Z,2.70
2023-05-10T20:20:24.605Z,3.30
2023-05-10T20:25:22.947Z,1.90
2023-05-10T20:30:23.050Z,3.10
2023-05-10T20:35:21.519Z,2.20
2023-05-10T20:40:20.164Z,2.90
2023-05-10T20:45:18.471Z,2.57
2023-05-10T20:50:18.541Z,1.70
2023-05-10T20:55:17.220Z,1.90
2023-05-10T21:00:16.695Z,1.83
2023-05-10T21:05:15.605Z,2.40
2023-05-10T21:10:15.284Z,3.90
2023-05-10T21:15:13.959Z,1.60
2023-05-10T21:20:13.938Z,1.97
2023-05-10T21:25:12.361Z,3.97
2023-05-10T21:30:13.155Z,3.80
2023-05-10T21:35:11.892Z,2.53
2023-05-10T21:40:11.555Z,4.10
2023-05-10T21:45:10.388Z,5.93
2023-05-10T21:50:11.776Z,6.17
2023-05-10T21:55:11.250Z,2.83
2023-05-10T22:00:11.565Z,5.67
2023-05-10T22:05:12.521Z,2.53
2023-05-10T22:10:11.362Z,4.60
2023-05-10T22:15:11.122Z,4.60
2023-05-10T22:20:12.070Z,6.20
2023-05-10T22:25:10.838Z,6.27
2023-05-10T22:30:11.109Z,6.77
2023-05-10T22:35:11.891Z,7.77
2023-05-10T22:40:11.866Z,8.10
2023-05-10T22:45:11.457Z,7.50
2023-05-10T22:50:13.141Z,8.13
2023-05-10T22:55:11.776Z,8.87
2023-05-10T23:00:11.211Z,8.97
2023-05-10T23:05:11.821Z,8.60
2023-05-10T23:10:11.141Z,9.50
2023-05-10T23:15:10.604Z,8.90
2023-05-10T23:20:10.487Z,8.80
2023-05-10T23:25:11.638Z,7.33
2023-05-10T23:30:11.209Z,9.43
2023-05-10T23:35:10.706Z,9.80
2023-05-10T23:40:11.808Z,9.40
2023-05-10T23:45:10.955Z,9.90
2023-05-10T23:50:10.484Z,10.40
2023-05-10T23:55:11.802Z,8.90
